createdAt,value
2023-02-05T00:00:50.034Z,52.34
2023-02-05T00:03:39.414Z,52.47
2023-02-05T00:06:07.812Z,52.50
2023-02-05T00:08:35.990Z,52.41
2023-02-05T00:11:09.517Z,52.15
2023-02-05T00:13:41.154Z,52.31
2023-02-05T00:16:18.710Z,52.49
2023-02-05T00:18:47.021Z,52.64
2023-02-05T00:21:16.038Z,52.57
2023-02-05T00:23:44.394Z,52.62
2023-02-05T00:26:15.880Z,52.35
2023-02-05T00:28:45.259Z,52.35
2023-02-05T00:31:21.434Z,52.24
2023-02-05T00:33:50.889Z,52.22
2023-02-05T00:36:20.531Z,52.29
2023-02-05T00:38:49.334Z,52.25
2023-02-05T00:41:18.346Z,52.25
2023-02-05T00:43:46.714Z,52.28
2023-02-05T00:46:15.337Z,52.28
2023-02-05T00:48:43.912Z,52.13
2023-02-05T00:51:12.277Z,52.31
2023-02-05T00:53:40.541Z,52.52
2023-02-05T00:56:08.747Z,52.26
2023-02-05T00:58:37.520Z,52.23
2023-02-05T01:01:06.083Z,52.14
2023-02-05T01:03:34.116Z,52.00
2023-02-05T01:06:03.483Z,51.93
2023-02-05T01:08:31.791Z,52.04
2023-02-05T01:11:00.060Z,51.70
2023-02-05T01:13:28.283Z,51.78
2023-02-05T01:15:56.433Z,51.99
2023-02-05T01:18:24.801Z,51.84
2023-02-05T01:20:52.766Z,51.46
2023-02-05T01:23:20.826Z,51.76
2023-02-05T01:25:48.929Z,51.67
2023-02-05T01:28:17.164Z,51.58
2023-02-05T01:30:49.379Z,51.38
2023-02-05T01:33:18.908Z,51.40
2023-02-05T01:35:47.172Z,51.22
2023-02-05T01:38:15.614Z,51.00
2023-02-05T01:40:43.707Z,51.09
2023-02-05T01:43:17.589Z,51.05
2023-02-05T01:46:29.137Z,50.94
2023-02-05T01:48:59.342Z,50.86
2023-02-05T01:51:30.363Z,50.69
2023-02-05T01:53:58.550Z,51.04
2023-02-05T01:56:42.898Z,50.94
2023-02-05T01:59:17.493Z,51.03
2023-02-05T02:01:46.334Z,50.76
2023-02-05T02:04:28.410Z,50.68
2023-02-05T02:06:56.705Z,50.69
2023-02-05T02:09:24.684Z,50.73
2023-02-05T02:11:53.757Z,50.50
2023-02-05T02:14:22.560Z,50.49
2023-02-05T02:16:51.660Z,50.42
2023-02-05T02:19:31.810Z,50.45
2023-02-05T02:22:15.184Z,50.25
2023-02-05T02:24:49.157Z,50.58
2023-02-05T02:27:35.946Z,50.64
2023-02-05T02:30:23.020Z,50.20
2023-02-05T02:32:53.794Z,50.29
2023-02-05T02:35:48.799Z,50.14
2023-02-05T02:38:33.329Z,50.22
2023-02-05T02:41:27.427Z,50.48
2023-02-05T02:43:59.325Z,50.26
2023-02-05T02:46:42.894Z,50.00
2023-02-05T02:49:20.093Z,50.20
2023-02-05T02:51:51.755Z,50.01
2023-02-05T02:54:22.344Z,49.99
2023-02-05T02:56:52.919Z,50.02
2023-02-05T02:59:24.891Z,49.85
2023-02-05T03:01:57.257Z,49.93
2023-02-05T03:04:31.683Z,50.05
2023-02-05T03:07:20.730Z,49.88
2023-02-05T03:09:56.904Z,49.89
2023-02-05T03:12:25.260Z,49.96
2023-02-05T03:14:54.374Z,49.74
2023-02-05T03:17:24.817Z,49.58
2023-02-05T03:19:59.524Z,49.80
2023-02-05T03:22:27.712Z,49.87
2023-02-05T03:24:57.118Z,49.76
2023-02-05T03:27:26.012Z,49.81
2023-02-05T03:29:55.213Z,49.79
2023-02-05T03:32:23.611Z,49.89
2023-02-05T03:35:24.208Z,50.05
2023-02-05T03:38:07.327Z,49.85
2023-02-05T03:40:51.060Z,49.92
2023-02-05T03:43:50.150Z,49.68
2023-02-05T03:46:28.770Z,50.09
2023-02-05T03:49:15.569Z,50.01
2023-02-05T03:51:56.636Z,49.89
2023-02-05T03:54:25.018Z,49.85
2023-02-05T03:57:13.033Z,49.98
2023-02-05T03:59:42.709Z,49.67
2023-02-05T04:02:11.680Z,49.67
2023-02-05T04:04:41.981Z,49.61
2023-02-05T04:07:10.886Z,49.73
2023-02-05T04:09:39.462Z,49.64
2023-02-05T04:12:08.118Z,49.44
2023-02-05T04:14:37.358Z,49.70
2023-02-05T04:17:07.787Z,49.70
2023-02-05T04:19:36.148Z,49.49
2023-02-05T04:22:05.061Z,49.67
2023-02-05T04:24:35.081Z,49.91
2023-02-05T04:27:03.857Z,49.68
2023-02-05T04:29:32.063Z,49.56
2023-02-05T04:32:00.311Z,49.54
2023-02-05T04:34:28.513Z,49.61
2023-02-05T04:36:57.208Z,49.74
2023-02-05T04:39:26.780Z,49.72
2023-02-05T04:41:54.905Z,49.48
2023-02-05T04:44:23.183Z,49.49
2023-02-05T04:46:51.159Z,49.29
2023-02-05T04:49:19.911Z,49.62
2023-02-05T04:51:48.069Z,49.41
2023-02-05T04:54:16.243Z,49.60
2023-02-05T04:56:44.287Z,49.45
2023-02-05T04:59:12.324Z,49.50
2023-02-05T05:01:40.939Z,49.45
2023-02-05T05:04:09.538Z,49.20
2023-02-05T05:06:37.810Z,49.30
2023-02-05T05:09:05.787Z,49.18
2023-02-05T05:11:33.768Z,49.22
2023-02-05T05:14:02.044Z,49.27
2023-02-05T05:16:30.329Z,49.26
2023-02-05T05:18:58.301Z,49.40
2023-02-05T05:21:26.376Z,49.05
2023-02-05T05:23:54.448Z,49.14
2023-02-05T05:26:22.527Z,49.16
2023-02-05T05:28:57.275Z,49.06
2023-02-05T05:31:25.485Z,48.87
2023-02-05T05:33:53.712Z,49.07
2023-02-05T05:36:21.795Z,48.94
2023-02-05T05:38:49.946Z,49.21
2023-02-05T05:41:41.184Z,49.27
2023-02-05T05:44:10.246Z,48.95
2023-02-05T05:46:38.454Z,48.90
2023-02-05T05:49:06.840Z,49.04
2023-02-05T05:51:34.964Z,49.04
2023-02-05T05:54:03.187Z,48.86
2023-02-05T05:56:31.265Z,49.06
2023-02-05T05:58:59.503Z,49.00
2023-02-05T06:01:28.135Z,48.90
2023-02-05T06:03:56.310Z,48.96
2023-02-05T06:06:24.597Z,48.99
2023-02-05T06:08:52.613Z,49.01
2023-02-05T06:11:20.748Z,48.89
2023-02-05T06:13:49.635Z,49.01
2023-02-05T06:16:17.898Z,48.91
2023-02-05T06:18:46.001Z,48.82
2023-02-05T06:21:14.600Z,48.96
2023-02-05T06:23:42.622Z,48.92
2023-02-05T06:26:10.738Z,48.98
2023-02-05T06:28:38.814Z,49.05
2023-02-05T06:31:06.968Z,48.94
2023-02-05T06:33:35.115Z,49.06
2023-02-05T06:36:03.240Z,49.24
2023-02-05T06:38:31.672Z,49.10
2023-02-05T06:40:59.814Z,49.09
2023-02-05T06:43:27.992Z,49.13
2023-02-05T06:45:56.270Z,49.09
2023-02-05T06:48:24.376Z,49.13
2023-02-05T06:50:52.422Z,49.29
2023-02-05T06:53:20.401Z,49.17
2023-02-05T06:55:48.576Z,49.01
2023-02-05T06:58:16.546Z,48.86
2023-02-05T07:00:44.625Z,49.06
2023-02-05T07:03:12.635Z,49.00
2023-02-05T07:05:40.681Z,48.86
2023-02-05T07:08:09.059Z,48.90
2023-02-05T07:10:37.446Z,48.74
2023-02-05T07:13:06.079Z,48.82
2023-02-05T07:15:37.744Z,48.79
2023-02-05T07:18:06.693Z,48.61
2023-02-05T07:20:34.769Z,48.94
2023-02-05T07:23:02.961Z,48.78
2023-02-05T07:25:36.557Z,48.94
2023-02-05T07:28:06.646Z,48.99
2023-02-05T07:30:35.853Z,49.35
2023-02-05T07:33:04.464Z,49.31
2023-02-05T07:35:35.353Z,49.42
2023-02-05T07:38:04.503Z,49.32
2023-02-05T07:40:32.683Z,49.52
2023-02-05T07:43:00.856Z,49.57
2023-02-05T07:45:29.048Z,49.83
2023-02-05T07:47:57.317Z,49.56
2023-02-05T07:50:25.483Z,49.35
2023-02-05T07:52:53.876Z,49.66
2023-02-05T07:55:22.050Z,49.54
2023-02-05T07:57:50.142Z,49.68
2023-02-05T08:00:18.637Z,49.52
2023-02-05T08:02:46.793Z,49.55
2023-02-05T08:05:14.789Z,49.55
2023-02-05T08:07:42.938Z,49.54
2023-02-05T08:10:14.091Z,49.51
2023-02-05T08:12:42.160Z,49.34
2023-02-05T08:15:11.136Z,49.41
2023-02-05T08:17:39.265Z,49.35
2023-02-05T08:20:07.932Z,49.28
2023-02-05T08:22:38.575Z,49.49
2023-02-05T08:25:10.309Z,49.43
2023-02-05T08:27:39.520Z,49.26
2023-02-05T08:30:11.339Z,49.34
2023-02-05T08:32:39.777Z,49.04
2023-02-05T08:35:08.466Z,49.36
2023-02-05T08:37:36.640Z,49.16
2023-02-05T08:40:05.028Z,48.82
2023-02-05T08:42:33.197Z,49.10
2023-02-05T08:45:01.481Z,49.11
2023-02-05T08:47:29.660Z,48.75
2023-02-05T08:49:57.734Z,48.64
2023-02-05T08:52:25.881Z,48.86
2023-02-05T08:54:53.895Z,49.01
2023-02-05T08:57:21.973Z,48.78
2023-02-05T08:59:50.349Z,48.54
2023-02-05T09:02:19.656Z,48.96
2023-02-05T09:04:47.831Z,48.88
2023-02-05T09:07:16.601Z,48.96
2023-02-05T09:09:44.810Z,48.93
2023-02-05T09:12:13.085Z,48.95
2023-02-05T09:14:41.676Z,48.70
2023-02-05T09:17:14.380Z,49.08
2023-02-05T09:19:42.305Z,49.06
2023-02-05T09:22:10.512Z,49.19
2023-02-05T09:24:38.569Z,49.28
2023-02-05T09:27:06.866Z,49.11
2023-02-05T09:29:35.354Z,49.38
2023-02-05T09:32:03.527Z,49.81
2023-02-05T09:34:32.446Z,49.67
2023-02-05T09:37:00.520Z,50.18
2023-02-05T09:40:17.356Z,50.03
2023-02-05T09:42:40.814Z,50.33
2023-02-05T09:45:12.244Z,49.89
2023-02-05T09:47:58.810Z,49.97
2023-02-05T09:50:30.246Z,49.77
2023-02-05T09:53:14.520Z,49.45
2023-02-05T09:55:47.757Z,49.39
2023-02-05T09:58:23.460Z,49.40
2023-02-05T10:01:01.572Z,49.29
2023-02-05T10:03:32.608Z,49.05
2023-02-05T10:06:09.710Z,49.31
2023-02-05T10:08:50.043Z,49.02
2023-02-05T10:12:02.557Z,49.00
2023-02-05T10:14:39.604Z,49.01
2023-02-05T10:17:33.282Z,48.78
2023-02-05T10:20:07.526Z,48.58
2023-02-05T10:23:08.512Z,48.76
2023-02-05T10:25:45.717Z,48.95
2023-02-05T10:28:46.509Z,48.94
2023-02-05T10:31:42.753Z,49.03
2023-02-05T10:34:32.051Z,48.71
2023-02-05T10:37:02.448Z,48.79
2023-02-05T10:39:31.487Z,48.81
2023-02-05T10:42:06.974Z,48.51
2023-02-05T10:44:43.037Z,48.49
2023-02-05T10:47:40.589Z,48.66
2023-02-05T10:50:23.294Z,48.79
2023-02-05T10:52:51.671Z,48.94
2023-02-05T10:55:19.961Z,48.79
2023-02-05T10:57:48.232Z,48.70
2023-02-05T11:00:20.663Z,48.85
2023-02-05T11:02:55.673Z,49.02
2023-02-05T11:05:32.419Z,48.90
2023-02-05T11:08:00.702Z,48.51
2023-02-05T11:10:31.286Z,48.78
2023-02-05T11:13:22.838Z,48.97
2023-02-05T11:16:00.657Z,48.66
2023-02-05T11:18:35.694Z,48.78
2023-02-05T11:21:06.356Z,48.70
2023-02-05T11:23:39.779Z,48.65
2023-02-05T11:26:20.390Z,48.86
2023-02-05T11:28:48.453Z,48.54
2023-02-05T11:31:23.651Z,48.58
2023-02-05T11:34:09.269Z,48.53
2023-02-05T11:36:49.949Z,48.60
2023-02-05T11:39:39.800Z,48.75
2023-02-05T11:42:15.756Z,48.76
2023-02-05T11:44:50.473Z,48.45
2023-02-05T11:47:31.962Z,48.66
2023-02-05T11:50:01.069Z,48.26
2023-02-05T11:52:33.083Z,48.62
2023-02-05T11:55:01.919Z,48.57
2023-02-05T11:57:31.958Z,48.33
2023-02-05T12:00:01.483Z,48.28
2023-02-05T12:02:35.962Z,48.69
2023-02-05T12:05:24.245Z,48.16
2023-02-05T12:08:01.707Z,48.46
2023-02-05T12:10:39.503Z,48.52
2023-02-05T12:13:24.467Z,48.33
2023-02-05T12:16:08.545Z,48.35
2023-02-05T12:18:52.025Z,48.16
2023-02-05T12:21:43.230Z,48.31
2023-02-05T12:24:21.651Z,48.07
2023-02-05T12:26:57.499Z,48.16
2023-02-05T12:29:39.094Z,48.31
2023-02-05T12:32:29.931Z,48.24
2023-02-05T12:35:13.406Z,48.27
2023-02-05T12:38:07.994Z,47.74
2023-02-05T12:40:57.758Z,48.21
2023-02-05T12:43:45.187Z,48.17
2023-02-05T12:46:44.566Z,47.87
2023-02-05T12:49:23.894Z,47.89
2023-02-05T12:51:55.050Z,47.86
2023-02-05T12:54:34.783Z,47.99
2023-02-05T12:57:08.699Z,48.00
2023-02-05T12:59:50.945Z,47.97
2023-02-05T13:02:37.283Z,47.87
2023-02-05T13:05:14.684Z,47.67
2023-02-05T13:07:48.896Z,48.06
2023-02-05T13:10:53.505Z,47.54
2023-02-05T13:13:28.248Z,47.82
2023-02-05T13:16:05.020Z,47.71
2023-02-05T13:18:38.507Z,47.56
2023-02-05T13:21:30.023Z,47.53
2023-02-05T13:24:31.309Z,47.63
2023-02-05T13:27:18.480Z,47.51
2023-02-05T13:29:51.712Z,47.42
2023-02-05T13:32:23.748Z,47.88
2023-02-05T13:34:54.975Z,47.55
2023-02-05T13:37:58.466Z,47.44
2023-02-05T13:40:55.858Z,47.71
2023-02-05T13:43:58.624Z,47.51
2023-02-05T13:46:51.716Z,47.56
2023-02-05T13:49:47.412Z,47.51
2023-02-05T13:52:54.081Z,47.69
2023-02-05T13:55:25.017Z,47.57
2023-02-05T13:58:11.416Z,47.78
2023-02-05T14:00:42.764Z,47.67
2023-02-05T14:03:27.170Z,47.67
2023-02-05T14:05:57.123Z,47.66
2023-02-05T14:08:29.697Z,47.59
2023-02-05T14:11:01.060Z,47.40
2023-02-05T14:13:34.669Z,47.41
2023-02-05T14:16:24.537Z,47.38
2023-02-05T14:19:01.643Z,47.42
2023-02-05T14:21:29.671Z,47.40
2023-02-05T14:24:01.758Z,47.53
2023-02-05T14:26:48.280Z,47.66
2023-02-05T14:29:43.135Z,47.32
2023-02-05T14:32:27.403Z,47.37
2023-02-05T14:35:05.266Z,47.37
2023-02-05T14:38:03.362Z,47.28
2023-02-05T14:40:38.524Z,47.42
2023-02-05T14:43:26.321Z,47.33
2023-02-05T14:45:55.231Z,47.72
2023-02-05T14:48:30.970Z,47.39
2023-02-05T14:51:21.759Z,47.34
2023-02-05T14:54:04.363Z,47.45
2023-02-05T14:56:54.331Z,47.63
2023-02-05T14:59:29.907Z,47.58
2023-02-05T15:01:59.806Z,47.54
2023-02-05T15:04:27.802Z,47.78
2023-02-05T15:06:59.633Z,47.61
2023-02-05T15:09:54.620Z,47.68
2023-02-05T15:12:28.561Z,47.71
2023-02-05T15:14:58.661Z,47.64
2023-02-05T15:17:30.051Z,47.61
2023-02-05T15:20:04.552Z,47.74
2023-02-05T15:22:46.120Z,47.54
2023-02-05T15:25:33.983Z,47.59
2023-02-05T15:28:08.473Z,47.77
2023-02-05T15:30:51.502Z,47.62
2023-02-05T15:33:34.714Z,47.52
2023-02-05T15:36:12.054Z,47.71
2023-02-05T15:38:52.253Z,47.82
2023-02-05T15:41:22.573Z,47.62
2023-02-05T15:44:02.134Z,47.76
2023-02-05T15:46:33.279Z,47.58
2023-02-05T15:49:01.733Z,47.71
2023-02-05T15:51:34.134Z,47.90
2023-02-05T15:54:04.326Z,47.48
2023-02-05T15:56:33.040Z,47.83
2023-02-05T15:59:09.991Z,48.49
2023-02-05T16:01:46.253Z,48.41
2023-02-05T16:04:20.279Z,48.54
2023-02-05T16:06:49.403Z,48.44
2023-02-05T16:09:19.599Z,48.63
2023-02-05T16:11:48.724Z,48.39
2023-02-05T16:14:19.600Z,48.05
2023-02-05T16:16:53.867Z,47.43
2023-02-05T16:19:26.149Z,47.57
2023-02-05T16:22:03.329Z,47.53
2023-02-05T16:24:39.410Z,47.87
2023-02-05T16:27:17.288Z,47.98
2023-02-05T16:29:51.020Z,47.78
2023-02-05T16:32:31.548Z,48.06
2023-02-05T16:35:02.437Z,48.05
2023-02-05T16:37:32.106Z,47.79
2023-02-05T16:40:06.872Z,47.86
2023-02-05T16:42:43.502Z,47.93
2023-02-05T16:45:20.475Z,47.79
2023-02-05T16:48:22.632Z,47.83
2023-02-05T16:50:51.758Z,48.03
2023-02-05T16:53:26.792Z,47.85
2023-02-05T16:56:22.067Z,48.12
2023-02-05T16:58:53.633Z,47.55
2023-02-05T17:01:24.185Z,47.63
2023-02-05T17:03:52.231Z,48.01
2023-02-05T17:06:21.330Z,47.95
2023-02-05T17:08:55.269Z,48.05
2023-02-05T17:11:41.942Z,48.11
2023-02-05T17:14:31.221Z,48.28
2023-02-05T17:17:15.595Z,48.25
2023-02-05T17:19:44.234Z,48.42
2023-02-05T17:22:15.050Z,48.21
2023-02-05T17:24:49.289Z,47.99
2023-02-05T17:27:32.951Z,48.33
2023-02-05T17:30:01.019Z,48.23
2023-02-05T17:32:30.093Z,48.22
2023-02-05T17:35:00.043Z,48.31
2023-02-05T17:37:28.207Z,48.36
2023-02-05T17:39:57.918Z,48.26
2023-02-05T17:42:26.815Z,48.42
2023-02-05T17:44:55.014Z,48.00
2023-02-05T17:47:23.372Z,48.45
2023-02-05T17:49:51.367Z,48.25
2023-02-05T17:52:19.761Z,48.26
2023-02-05T17:54:47.807Z,48.13
2023-02-05T17:57:21.367Z,48.29
2023-02-05T17:59:50.314Z,48.22
2023-02-05T18:02:18.295Z,48.10
2023-02-05T18:04:46.980Z,48.68
2023-02-05T18:07:37.278Z,48.56
2023-02-05T18:10:07.380Z,48.73
2023-02-05T18:12:35.373Z,48.50
2023-02-05T18:15:04.120Z,48.58
2023-02-05T18:17:32.179Z,48.28
2023-02-05T18:20:00.289Z,48.42
2023-02-05T18:22:28.671Z,48.67
2023-02-05T18:24:56.763Z,48.74
2023-02-05T18:27:26.053Z,48.74
2023-02-05T18:29:54.389Z,48.76
2023-02-05T18:32:22.712Z,48.78
2023-02-05T18:34:51.347Z,48.69
2023-02-05T18:37:20.001Z,48.69
2023-02-05T18:39:48.375Z,48.83
2023-02-05T18:42:16.969Z,48.50
2023-02-05T18:44:45.145Z,48.66
2023-02-05T18:47:14.038Z,48.85
2023-02-05T18:49:42.140Z,48.68
2023-02-05T18:52:11.926Z,48.72
2023-02-05T18:54:40.412Z,48.61
2023-02-05T18:57:08.565Z,48.29
2023-02-05T18:59:38.100Z,48.85
2023-02-05T19:02:09.582Z,48.52
2023-02-05T19:04:37.736Z,48.55
2023-02-05T19:07:05.804Z,48.79
2023-02-05T19:09:34.497Z,48.58
2023-02-05T19:12:02.979Z,49.01
2023-02-05T19:14:31.077Z,48.69
2023-02-05T19:16:59.138Z,48.60
2023-02-05T19:19:27.205Z,48.64
2023-02-05T19:22:01.933Z,48.79
2023-02-05T19:24:30.025Z,48.73
2023-02-05T19:26:59.322Z,48.69
2023-02-05T19:29:28.013Z,48.80
2023-02-05T19:31:57.612Z,48.90
2023-02-05T19:34:27.794Z,48.72
2023-02-05T19:36:55.893Z,48.46
2023-02-05T19:39:24.099Z,48.67
2023-02-05T19:41:53.025Z,48.53
2023-02-05T19:44:21.182Z,48.60
2023-02-05T19:46:50.473Z,48.87
2023-02-05T19:49:20.506Z,48.63
2023-02-05T19:51:51.355Z,48.68
2023-02-05T19:54:21.597Z,48.60
2023-02-05T19:56:50.595Z,48.59
2023-02-05T19:59:19.470Z,48.21
2023-02-05T20:01:47.905Z,48.27
2023-02-05T20:04:19.099Z,48.36
2023-02-05T20:06:48.209Z,48.40
2023-02-05T20:09:17.432Z,48.50
2023-02-05T20:11:52.645Z,48.53
2023-02-05T20:14:22.043Z,48.40
2023-02-05T20:16:50.124Z,48.38
2023-02-05T20:19:18.808Z,48.77
2023-02-05T20:21:47.395Z,48.40
2023-02-05T20:24:16.633Z,48.70
2023-02-05T20:26:48.457Z,48.61
2023-02-05T20:29:35.844Z,48.60
2023-02-05T20:32:04.854Z,48.50
2023-02-05T20:34:35.978Z,48.52
2023-02-05T20:37:06.819Z,48.47
2023-02-05T20:39:35.522Z,48.43
2023-02-05T20:42:03.773Z,48.53
2023-02-05T20:44:36.447Z,48.48
2023-02-05T20:47:07.278Z,48.76
2023-02-05T20:49:36.039Z,48.49
2023-02-05T20:52:04.794Z,48.35
2023-02-05T20:54:33.003Z,48.29
2023-02-05T20:57:01.394Z,48.57
2023-02-05T20:59:34.495Z,48.19
2023-02-05T21:02:03.570Z,48.26
2023-02-05T21:04:32.076Z,48.09
2023-02-05T21:07:01.009Z,48.16
2023-02-05T21:09:29.255Z,48.26
2023-02-05T21:11:57.625Z,48.26
2023-02-05T21:14:26.006Z,48.14
2023-02-05T21:16:54.310Z,48.04
2023-02-05T21:19:23.295Z,47.98
2023-02-05T21:21:52.286Z,48.21
2023-02-05T21:24:21.490Z,48.27
2023-02-05T21:26:50.221Z,48.17
2023-02-05T21:29:20.726Z,48.10
2023-02-05T21:31:53.084Z,48.23
2023-02-05T21:34:25.065Z,48.02
2023-02-05T21:36:55.125Z,48.24
2023-02-05T21:39:23.458Z,48.04
2023-02-05T21:41:51.730Z,48.15
2023-02-05T21:44:20.031Z,48.23
2023-02-05T21:46:48.187Z,48.21
2023-02-05T21:49:16.376Z,48.12
2023-02-05T21:51:44.516Z,48.01
2023-02-05T21:54:12.625Z,48.03
2023-02-05T21:56:42.967Z,47.97
2023-02-05T21:59:12.882Z,47.89
2023-02-05T22:01:42.181Z,47.77
2023-02-05T22:04:17.020Z,47.69
2023-02-05T22:06:45.502Z,47.76
2023-02-05T22:09:15.385Z,47.88
2023-02-05T22:11:44.735Z,47.74
2023-02-05T22:14:12.909Z,47.72
2023-02-05T22:16:41.060Z,47.71
2023-02-05T22:19:09.248Z,47.66
2023-02-05T22:21:40.956Z,47.46
2023-02-05T22:24:13.919Z,47.67
2023-02-05T22:26:43.719Z,47.80
2023-02-05T22:29:15.279Z,47.91
2023-02-05T22:31:45.109Z,47.94
2023-02-05T22:34:13.377Z,47.80
2023-02-05T22:36:41.466Z,47.92
2023-02-05T22:39:09.822Z,47.87
2023-02-05T22:41:40.542Z,48.06
2023-02-05T22:44:10.882Z,48.13
2023-02-05T22:46:42.136Z,47.97
2023-02-05T22:49:12.063Z,48.01
2023-02-05T22:51:41.778Z,48.31
2023-02-05T22:54:12.198Z,48.26
2023-02-05T22:56:40.389Z,48.33
2023-02-05T22:59:08.973Z,48.30
2023-02-05T23:01:39.204Z,48.12
2023-02-05T23:04:08.930Z,48.19
2023-02-05T23:06:40.801Z,48.31
2023-02-05T23:09:15.033Z,48.42
2023-02-05T23:11:44.291Z,48.29
2023-02-05T23:14:15.179Z,48.29
2023-02-05T23:16:45.633Z,48.20
2023-02-05T23:19:18.702Z,48.27
2023-02-05T23:21:48.121Z,48.20
2023-02-05T23:24:17.460Z,48.24
2023-02-05T23:26:48.836Z,48.27
2023-02-05T23:29:17.922Z,48.04
2023-02-05T23:31:46.813Z,48.02
2023-02-05T23:34:14.873Z,48.08
2023-02-05T23:36:42.925Z,47.90
2023-02-05T23:39:11.031Z,48.34
2023-02-05T23:41:40.211Z,48.18
2023-02-05T23:44:15.453Z,48.16
2023-02-05T23:46:45.530Z,48.39
2023-02-05T23:49:14.797Z,48.19
2023-02-05T23:51:43.354Z,48.40
2023-02-05T23:54:12.311Z,48.31
2023-02-05T23:56:40.873Z,48.39
2023-02-05T23:59:11.266Z,48.35
